createdAt,value
2019-06-10T00:02:07.255Z,76.10
2019-06-10T00:04:37.556Z,76.40
2019-06-10T00:07:11.842Z,76.30
2019-06-10T00:09:41.435Z,76.30
2019-06-10T00:12:12.768Z,76.70
2019-06-10T00:14:43.021Z,76.90
2019-06-10T00:17:13.198Z,76.90
2019-06-10T00:19:43.300Z,77.20
2019-06-10T00:22:13.703Z,78.00
2019-06-10T00:24:43.956Z,77.70
2019-06-10T00:27:14.293Z,77.60
2019-06-10T00:29:44.380Z,78.20
2019-06-10T00:32:14.738Z,78.00
2019-06-10T00:34:45.267Z,78.20
2019-06-10T00:37:15.315Z,77.90
2019-06-10T00:39:45.367Z,78.10
2019-06-10T00:42:15.558Z,78.00
2019-06-10T00:44:45.656Z,78.40
2019-06-10T00:47:15.773Z,78.00
2019-06-10T00:49:45.973Z,78.80
2019-06-10T00:52:15.951Z,78.90
2019-06-10T00:54:46.221Z,78.70
2019-06-10T00:57:16.833Z,78.90
2019-06-10T00:59:47.546Z,79.80
2019-06-10T01:02:17.904Z,79.10
2019-06-10T01:04:48.203Z,78.70
2019-06-10T01:07:18.704Z,78.80
2019-06-10T01:09:48.829Z,78.70
2019-06-10T01:12:20.997Z,79.00
2019-06-10T01:14:51.721Z,79.20
2019-06-10T01:17:22.452Z,79.40
2019-06-10T01:19:53.085Z,79.70
2019-06-10T01:22:23.145Z,79.70
2019-06-10T01:24:53.189Z,79.70
2019-06-10T01:27:23.256Z,79.80
2019-06-10T01:29:54.003Z,79.70
2019-06-10T01:32:24.010Z,79.50
2019-06-10T01:34:54.661Z,79.50
2019-06-10T01:37:24.818Z,79.30
2019-06-10T01:39:54.846Z,79.60
2019-06-10T01:42:24.916Z,79.80
2019-06-10T01:44:54.937Z,80.00
2019-06-10T01:47:25.273Z,80.80
2019-06-10T01:49:55.304Z,80.20
2019-06-10T01:52:25.379Z,80.70
2019-06-10T01:54:55.522Z,80.80
2019-06-10T01:57:26.094Z,81.10
2019-06-10T01:59:56.437Z,81.30
2019-06-10T02:02:26.638Z,81.40
2019-06-10T02:04:56.767Z,81.80
2019-06-10T02:07:26.885Z,82.20
2019-06-10T02:09:56.976Z,82.20
2019-06-10T02:12:27.121Z,82.30
2019-06-10T02:14:57.300Z,82.50
2019-06-10T02:17:27.993Z,83.50
2019-06-10T02:19:58.042Z,82.90
2019-06-10T02:22:28.049Z,83.20
2019-06-10T02:24:58.333Z,83.20
2019-06-10T02:27:28.296Z,83.80
2019-06-10T02:29:58.380Z,84.10
2019-06-10T02:32:33.012Z,84.30
2019-06-10T02:35:08.838Z,84.60
2019-06-10T02:37:37.739Z,84.90
2019-06-10T02:40:04.862Z,85.20
2019-06-10T02:42:39.421Z,85.30
2019-06-10T02:45:13.823Z,85.60
2019-06-10T02:47:44.417Z,85.70
2019-06-10T02:50:17.212Z,86.00
2019-06-10T02:52:46.094Z,86.40
2019-06-10T02:55:19.547Z,86.90
2019-06-10T02:57:48.275Z,87.60
2019-06-10T03:00:26.766Z,87.50
2019-06-10T03:02:52.923Z,87.90
2019-06-10T03:05:29.698Z,88.50
2019-06-10T03:07:53.720Z,88.80
2019-06-10T03:10:30.128Z,89.10
2019-06-10T03:12:55.503Z,89.10
2019-06-10T03:15:26.747Z,89.10
2019-06-10T03:17:57.139Z,89.10
2019-06-10T03:20:28.410Z,89.00
2019-06-10T03:22:58.538Z,89.20
2019-06-10T03:25:28.970Z,89.40
2019-06-10T03:27:59.481Z,89.40
2019-06-10T03:30:46.454Z,89.30
2019-06-10T03:33:04.823Z,90.10
2019-06-10T03:35:33.249Z,90.00
2019-06-10T03:38:03.502Z,89.80
2019-06-10T03:40:33.460Z,89.80
2019-06-10T03:43:03.529Z,90.20
2019-06-10T03:45:33.745Z,90.40
2019-06-10T03:48:04.244Z,90.30
2019-06-10T03:50:34.400Z,90.40
2019-06-10T03:53:05.180Z,90.80
2019-06-10T03:55:35.374Z,90.60
2019-06-10T03:58:05.644Z,90.90
2019-06-10T04:00:36.990Z,90.90
2019-06-10T04:03:07.195Z,90.90
2019-06-10T04:05:37.291Z,90.90
2019-06-10T04:08:07.957Z,90.90
2019-06-10T04:10:38.062Z,90.90
2019-06-10T04:13:08.583Z,90.90
2019-06-10T04:15:38.793Z,90.70
2019-06-10T04:18:09.453Z,90.50
2019-06-10T04:20:42.932Z,90.20
2019-06-10T04:23:12.587Z,90.00
2019-06-10T04:25:44.416Z,89.30
2019-06-10T04:28:14.731Z,88.40
2019-06-10T04:30:45.139Z,88.60
2019-06-10T04:33:15.490Z,88.80
2019-06-10T04:35:45.514Z,89.20
2019-06-10T04:38:15.598Z,89.60
2019-06-10T04:40:45.748Z,89.70
2019-06-10T04:43:15.749Z,89.50
2019-06-10T04:45:45.749Z,89.50
2019-06-10T04:48:16.239Z,90.00
2019-06-10T04:50:46.647Z,90.30
2019-06-10T04:53:16.865Z,90.00
2019-06-10T04:55:47.049Z,89.40
2019-06-10T04:58:17.249Z,88.80
2019-06-10T05:00:47.353Z,88.10
2019-06-10T05:03:18.896Z,87.80
2019-06-10T05:05:49.303Z,87.40
2019-06-10T05:08:19.384Z,85.80
2019-06-10T05:10:49.760Z,83.80
2019-06-10T05:13:21.835Z,80.30
2019-06-10T05:15:52.703Z,78.00
2019-06-10T05:18:25.506Z,75.60
2019-06-10T05:20:58.567Z,73.10
2019-06-10T05:23:27.860Z,70.00
2019-06-10T05:25:58.134Z,70.40
2019-06-10T05:28:28.741Z,71.70
2019-06-10T05:30:59.042Z,69.70
2019-06-10T05:33:29.100Z,65.90
2019-06-10T05:35:59.334Z,63.00
2019-06-10T05:38:31.269Z,58.00
2019-06-10T05:41:02.963Z,55.40
2019-06-10T05:43:34.655Z,56.10
2019-06-10T05:46:05.232Z,57.10
2019-06-10T05:48:35.267Z,59.20
2019-06-10T05:51:06.916Z,58.90
2019-06-10T05:53:37.275Z,59.90
2019-06-10T05:56:07.736Z,60.60
2019-06-10T05:58:37.798Z,62.50
2019-06-10T06:01:08.088Z,61.70
2019-06-10T06:03:38.234Z,61.60
2019-06-10T06:06:08.657Z,61.20
2019-06-10T06:08:39.051Z,61.70
2019-06-10T06:11:09.361Z,63.20
2019-06-10T06:13:39.801Z,64.70
2019-06-10T06:16:12.351Z,66.80
2019-06-10T06:18:42.189Z,68.80
2019-06-10T06:21:25.373Z,70.10
2019-06-10T06:23:44.768Z,72.20
2019-06-10T06:26:16.270Z,73.60
2019-06-10T06:28:46.412Z,74.50
2019-06-10T06:31:16.604Z,77.20
2019-06-10T06:33:46.735Z,77.60
2019-06-10T06:36:16.935Z,78.00
2019-06-10T06:38:47.098Z,76.50
2019-06-10T06:41:17.813Z,75.90
2019-06-10T06:43:48.673Z,75.10
2019-06-10T06:46:18.938Z,72.60
2019-06-10T06:48:49.055Z,71.90
2019-06-10T06:51:35.518Z,68.60
2019-06-10T06:53:55.438Z,62.00
2019-06-10T06:56:23.409Z,55.90
2019-06-10T06:58:53.425Z,48.10
2019-06-10T07:01:25.967Z,48.40
2019-06-10T07:03:56.025Z,43.40
2019-06-10T07:06:26.303Z,39.20
2019-06-10T07:09:04.030Z,41.00
2019-06-10T07:11:34.554Z,42.10
2019-06-10T07:14:05.490Z,39.00
2019-06-10T07:16:38.999Z,40.80
2019-06-10T07:19:15.233Z,40.80
2019-06-10T07:22:05.360Z,41.80
2019-06-10T07:24:17.906Z,41.50
2019-06-10T07:26:52.163Z,44.20
2019-06-10T07:29:22.434Z,45.10
2019-06-10T07:31:53.572Z,41.90
2019-06-10T07:34:23.359Z,39.30
2019-06-10T07:36:53.592Z,37.90
2019-06-10T07:39:23.777Z,38.80
2019-06-10T07:41:53.623Z,38.10
2019-06-10T07:44:23.687Z,39.60
2019-06-10T07:46:53.666Z,42.20
2019-06-10T07:49:23.957Z,42.90
2019-06-10T07:51:54.233Z,43.50
2019-06-10T07:54:24.519Z,41.60
2019-06-10T07:56:54.576Z,38.10
2019-06-10T07:59:24.797Z,33.60
2019-06-10T08:01:55.494Z,30.10
2019-06-10T08:04:25.543Z,28.90
2019-06-10T08:06:55.704Z,27.60
2019-06-10T08:09:25.677Z,26.90
2019-06-10T08:11:55.957Z,26.30
2019-06-10T08:14:26.431Z,26.50
2019-06-10T08:16:56.441Z,26.00
2019-06-10T08:19:34.971Z,26.00
2019-06-10T08:21:58.788Z,25.40
2019-06-10T08:24:28.874Z,25.70
2019-06-10T08:26:58.952Z,25.70
2019-06-10T08:29:29.334Z,25.00
2019-06-10T08:31:59.386Z,24.40
2019-06-10T08:34:29.509Z,24.40
2019-06-10T08:36:59.528Z,23.80
2019-06-10T08:39:29.615Z,23.90
2019-06-10T08:41:59.750Z,23.60
2019-06-10T08:44:32.595Z,23.90
2019-06-10T08:47:03.142Z,24.90
2019-06-10T08:49:33.668Z,24.70
2019-06-10T08:52:03.883Z,24.00
2019-06-10T08:54:34.198Z,24.40
2019-06-10T08:57:04.700Z,24.30
2019-06-10T08:59:34.760Z,24.30
2019-06-10T09:02:04.870Z,23.50
2019-06-10T09:04:35.150Z,23.30
2019-06-10T09:07:05.543Z,23.60
2019-06-10T09:09:40.506Z,23.70
2019-06-10T09:12:28.392Z,24.10
2019-06-10T09:14:44.069Z,24.50
2019-06-10T09:17:15.106Z,23.90
2019-06-10T09:19:47.887Z,23.50
2019-06-10T09:22:17.220Z,23.00
2019-06-10T09:24:52.381Z,22.90
2019-06-10T09:27:26.091Z,22.90
2019-06-10T09:29:56.147Z,22.70
2019-06-10T09:32:32.483Z,22.40
2019-06-10T09:35:12.611Z,23.40
2019-06-10T09:37:55.717Z,22.70
2019-06-10T09:40:48.380Z,22.80
2019-06-10T09:43:15.450Z,22.70
2019-06-10T09:45:50.214Z,22.90
2019-06-10T09:48:24.454Z,23.10
2019-06-10T09:50:58.487Z,24.10
2019-06-10T09:53:39.087Z,23.70
2019-06-10T09:55:59.171Z,24.40
2019-06-10T09:58:33.606Z,24.70
2019-06-10T10:01:19.043Z,22.90
2019-06-10T10:03:50.218Z,22.90
2019-06-10T10:06:17.679Z,22.10
2019-06-10T10:08:52.376Z,21.70
2019-06-10T10:11:21.249Z,21.60
2019-06-10T10:13:52.703Z,22.30
2019-06-10T10:16:23.209Z,22.00
2019-06-10T10:19:00.160Z,21.20
2019-06-10T10:21:28.496Z,21.00
2019-06-10T10:24:08.072Z,21.20
2019-06-10T10:26:35.178Z,21.60
2019-06-10T10:29:05.742Z,22.10
2019-06-10T10:31:36.247Z,22.70
2019-06-10T10:34:06.362Z,23.20
2019-06-10T10:36:36.484Z,23.40
2019-06-10T10:39:09.678Z,23.30
2019-06-10T10:41:43.179Z,23.60
2019-06-10T10:44:13.851Z,23.50
2019-06-10T10:46:47.461Z,23.40
2019-06-10T10:49:17.630Z,24.90
2019-06-10T10:51:49.048Z,26.70
2019-06-10T10:54:32.177Z,28.90
2019-06-10T10:56:58.663Z,31.20
2019-06-10T10:59:24.548Z,33.50
2019-06-10T11:01:56.993Z,35.30
2019-06-10T11:04:27.459Z,36.40
2019-06-10T11:07:00.410Z,37.80
2019-06-10T11:09:32.881Z,38.90
2019-06-10T11:12:03.586Z,39.30
2019-06-10T11:14:34.248Z,38.90
2019-06-10T11:17:04.295Z,39.30
2019-06-10T11:19:35.386Z,39.40
2019-06-10T11:22:05.459Z,39.00
2019-06-10T11:24:40.826Z,39.00
2019-06-10T11:27:07.774Z,40.10
2019-06-10T11:29:37.853Z,40.70
2019-06-10T11:32:07.893Z,40.80
2019-06-10T11:34:37.872Z,41.30
2019-06-10T11:37:08.242Z,41.90
2019-06-10T11:39:38.806Z,42.00
2019-06-10T11:42:10.321Z,42.90
2019-06-10T11:44:42.502Z,43.90
2019-06-10T11:47:13.252Z,45.00
2019-06-10T11:49:48.943Z,45.10
2019-06-10T11:52:19.611Z,44.40
2019-06-10T11:55:05.616Z,44.60
2019-06-10T11:57:27.490Z,44.90
2019-06-10T11:59:59.490Z,44.50
2019-06-10T12:02:30.366Z,45.10
2019-06-10T12:05:03.514Z,44.60
2019-06-10T12:07:34.952Z,44.20
2019-06-10T12:10:07.103Z,43.80
2019-06-10T12:12:38.094Z,42.80
2019-06-10T12:15:12.014Z,42.50
2019-06-10T12:17:50.796Z,41.80
2019-06-10T12:20:18.282Z,42.40
2019-06-10T12:23:02.115Z,42.80
2019-06-10T12:25:39.291Z,43.40
2019-06-10T12:28:16.962Z,43.70
2019-06-10T12:30:59.246Z,43.50
2019-06-10T12:33:29.023Z,43.50
2019-06-10T12:36:01.480Z,44.20
2019-06-10T12:38:33.544Z,44.60
2019-06-10T12:41:36.666Z,45.30
2019-06-10T12:44:13.262Z,45.90
2019-06-10T12:46:45.865Z,46.40
2019-06-10T12:49:18.730Z,47.60
2019-06-10T12:52:16.609Z,46.30
2019-06-10T12:57:59.860Z,45.80
2019-06-10T13:00:34.914Z,45.10
2019-06-10T13:03:05.459Z,45.10
2019-06-10T13:05:42.349Z,45.80
2019-06-10T13:08:11.275Z,45.30
2019-06-10T13:10:47.644Z,44.90
2019-06-10T13:13:22.709Z,44.20
2019-06-10T13:15:53.799Z,45.70
2019-06-10T13:18:25.773Z,45.90
2019-06-10T13:20:57.273Z,46.50
2019-06-10T13:23:31.979Z,46.40
2019-06-10T13:26:03.195Z,47.20
2019-06-10T13:28:32.505Z,47.40
2019-06-10T13:31:06.242Z,48.30
2019-06-10T13:33:35.364Z,48.90
2019-06-10T13:36:06.913Z,49.70
2019-06-10T13:38:37.217Z,49.00
2019-06-10T13:41:08.136Z,49.60
2019-06-10T13:43:52.522Z,50.40
2019-06-10T13:46:24.469Z,50.20
2019-06-10T13:48:53.792Z,50.40
2019-06-10T13:51:23.705Z,50.70
2019-06-10T13:53:54.002Z,51.10
2019-06-10T13:56:43.019Z,50.20
2019-06-10T13:58:55.560Z,49.80
2019-06-10T14:01:25.541Z,49.60
2019-06-10T14:03:55.951Z,49.50
2019-06-10T14:06:39.725Z,49.10
2019-06-10T14:08:57.937Z,49.40
2019-06-10T14:11:30.095Z,49.60
2019-06-10T14:14:01.254Z,49.60
2019-06-10T14:16:33.125Z,49.80
2019-06-10T14:19:05.813Z,49.90
2019-06-10T14:21:35.147Z,50.10
2019-06-10T14:24:06.180Z,49.80
2019-06-10T14:26:42.104Z,50.00
2019-06-10T14:29:15.958Z,50.40
2019-06-10T14:31:47.737Z,51.60
2019-06-10T14:34:29.126Z,51.80
2019-06-10T14:37:00.854Z,51.60
2019-06-10T14:39:32.930Z,51.90
2019-06-10T14:42:05.263Z,52.10
2019-06-10T14:44:42.242Z,52.60
2019-06-10T14:47:14.006Z,53.00
2019-06-10T14:49:53.156Z,53.60
2019-06-10T14:52:26.062Z,53.60
2019-06-10T14:54:57.659Z,53.60
2019-06-10T14:57:28.162Z,53.50
2019-06-10T15:00:03.713Z,54.30
2019-06-10T15:02:34.184Z,53.60
2019-06-10T15:05:04.789Z,53.20
2019-06-10T15:07:35.010Z,53.30
2019-06-10T15:10:05.928Z,53.70
2019-06-10T15:12:36.025Z,54.30
2019-06-10T15:15:08.058Z,54.60
2019-06-10T15:17:43.191Z,54.60
2019-06-10T15:20:32.981Z,55.40
2019-06-10T15:23:36.388Z,55.30
2019-06-10T15:26:42.156Z,55.70
2019-06-10T15:29:11.168Z,56.80
2019-06-10T15:31:46.733Z,56.50
2019-06-10T15:34:29.591Z,57.20
2019-06-10T15:37:21.273Z,57.90
2019-06-10T15:40:32.737Z,58.50
2019-06-10T15:43:17.943Z,58.90
2019-06-10T15:45:54.277Z,59.00
2019-06-10T15:52:15.509Z,59.60
2019-06-10T15:54:45.148Z,59.80
2019-06-10T15:57:30.754Z,61.20
2019-06-10T15:59:47.560Z,61.80
2019-06-10T16:02:29.971Z,61.80
2019-06-10T16:05:01.302Z,61.80
2019-06-10T16:07:42.344Z,62.40
2019-06-10T16:10:18.968Z,62.90
2019-06-10T16:12:54.455Z,63.70
2019-06-10T16:15:32.906Z,62.60
2019-06-10T16:18:17.129Z,62.10
2019-06-10T16:20:43.022Z,63.30
2019-06-10T16:23:17.602Z,63.10
2019-06-10T16:25:57.509Z,63.10
2019-06-10T16:28:32.839Z,62.70
2019-06-10T16:31:16.608Z,63.60
2019-06-10T16:33:52.733Z,64.60
2019-06-10T16:36:42.630Z,64.40
2019-06-10T16:39:25.651Z,64.60
2019-06-10T16:41:56.713Z,64.30
2019-06-10T16:44:28.309Z,65.10
2019-06-10T16:47:03.041Z,66.50
2019-06-10T16:49:45.424Z,68.40
2019-06-10T16:53:17.787Z,69.20
2019-06-10T16:55:49.189Z,70.30
2019-06-10T17:02:34.434Z,73.60
2019-06-10T17:05:05.325Z,75.30
2019-06-10T17:07:35.964Z,77.20
2019-06-10T17:10:07.382Z,79.60
2019-06-10T17:16:43.657Z,81.90
2019-06-10T17:19:27.367Z,83.60
2019-06-10T17:21:56.192Z,84.90
2019-06-10T17:24:29.455Z,86.10
2019-06-10T17:26:59.526Z,86.90
2019-06-10T17:32:56.462Z,88.30
2019-06-10T17:45:28.812Z,90.60
2019-06-10T17:48:03.123Z,91.10
2019-06-10T17:50:42.873Z,91.60
2019-06-10T17:56:45.491Z,92.30
2019-06-10T17:59:12.863Z,92.70
2019-06-10T18:01:44.782Z,92.60
2019-06-10T18:04:37.029Z,92.70
2019-06-10T18:08:13.505Z,93.30
2019-06-10T18:11:07.590Z,94.20
2019-06-10T18:13:47.699Z,94.80
2019-06-10T18:19:38.983Z,97.00
2019-06-10T18:22:09.332Z,98.20
2019-06-10T18:24:42.904Z,98.30
2019-06-10T18:27:14.538Z,99.10
2019-06-10T18:29:50.022Z,99.40
2019-06-10T18:32:22.735Z,99.40
2019-06-10T18:34:52.159Z,99.50
2019-06-10T18:37:23.636Z,99.70
2019-06-10T18:40:03.844Z,99.30
2019-06-10T18:42:39.008Z,99.20
2019-06-10T18:45:52.984Z,99.40
2019-06-10T18:49:08.372Z,99.00
2019-06-10T18:55:31.396Z,99.10
2019-06-10T18:59:13.492Z,99.40
2019-06-10T19:01:43.201Z,99.50
2019-06-10T19:08:02.286Z,99.60
2019-06-10T19:11:24.503Z,99.80
2019-06-10T19:20:58.654Z,99.90
2019-06-10T19:23:47.651Z,99.90
2019-06-10T19:26:48.383Z,99.90
2019-06-10T19:32:54.375Z,99.90
2019-06-10T19:39:08.941Z,99.90
2019-06-10T19:41:41.101Z,99.90
2019-06-10T19:44:37.067Z,99.40
2019-06-10T19:47:07.583Z,99.40
2019-06-10T19:49:41.199Z,99.30
2019-06-10T19:52:23.618Z,99.20
2019-06-10T19:55:13.197Z,98.90
2019-06-10T19:57:39.547Z,98.50
2019-06-10T20:00:14.082Z,99.00
2019-06-10T20:02:57.929Z,98.50
2019-06-10T20:05:32.628Z,98.90
2019-06-10T20:09:02.718Z,99.20
2019-06-10T20:11:41.027Z,99.50
2019-06-10T20:14:12.826Z,99.90
2019-06-10T20:21:51.453Z,99.90
2019-06-10T20:24:16.619Z,99.90
2019-06-10T20:27:43.764Z,99.90
2019-06-10T20:33:47.574Z,99.90
2019-06-10T20:36:27.295Z,99.90
2019-06-10T20:39:01.818Z,99.90
2019-06-10T20:41:55.771Z,99.90
2019-06-10T20:44:43.251Z,99.90
2019-06-10T20:49:07.212Z,99.90
2019-06-10T20:55:51.046Z,99.90
2019-06-10T20:58:25.244Z,99.90
2019-06-10T21:00:57.414Z,99.90
2019-06-10T21:03:37.373Z,99.90
2019-06-10T21:06:09.437Z,99.90
2019-06-10T21:08:47.721Z,99.90
2019-06-10T21:26:23.635Z,99.90
2019-06-10T21:29:12.850Z,99.90
2019-06-10T21:31:55.037Z,99.90
2019-06-10T21:34:32.693Z,99.90
2019-06-10T21:37:05.210Z,99.90
2019-06-10T21:40:12.787Z,99.90
2019-06-10T21:45:42.887Z,99.90
2019-06-10T21:48:57.348Z,99.90
2019-06-10T21:51:06.021Z,99.90
2019-06-10T21:53:39.725Z,99.90
2019-06-10T21:56:24.589Z,99.90
2019-06-10T21:58:58.289Z,99.90
2019-06-10T22:02:18.388Z,99.90
2019-06-10T22:04:53.830Z,99.90
2019-06-10T22:07:34.637Z,99.90
2019-06-10T22:10:06.098Z,99.90
2019-06-10T22:12:44.051Z,99.90
2019-06-10T22:15:23.801Z,99.90
2019-06-10T22:17:55.946Z,99.90
2019-06-10T22:20:32.468Z,99.90
2019-06-10T22:23:09.028Z,99.90
2019-06-10T22:25:39.710Z,99.90
2019-06-10T22:28:13.084Z,99.90
2019-06-10T22:30:45.090Z,99.90
2019-06-10T22:33:15.672Z,99.90
2019-06-10T22:35:47.577Z,99.90
2019-06-10T22:38:22.284Z,99.90
2019-06-10T22:40:57.036Z,99.90
2019-06-10T22:43:42.543Z,99.90
2019-06-10T22:46:18.011Z,99.90
2019-06-10T22:48:51.161Z,99.90
2019-06-10T22:51:22.763Z,99.90
2019-06-10T22:53:58.394Z,99.90
2019-06-10T22:56:36.131Z,99.90
2019-06-10T22:59:08.584Z,99.90
2019-06-10T23:01:42.364Z,99.90
2019-06-10T23:04:14.016Z,99.90
2019-06-10T23:06:48.273Z,99.90
2019-06-10T23:09:22.198Z,99.90
2019-06-10T23:11:56.439Z,99.90
2019-06-10T23:14:27.788Z,99.90
2019-06-10T23:18:00.264Z,99.90
2019-06-10T23:20:57.937Z,99.90
2019-06-10T23:24:22.657Z,99.90
2019-06-10T23:26:43.437Z,99.90
2019-06-10T23:29:19.669Z,99.90
2019-06-10T23:31:55.522Z,99.90
2019-06-10T23:38:33.031Z,99.90
2019-06-10T23:41:13.005Z,99.90
2019-06-10T23:43:55.034Z,99.90
2019-06-10T23:46:28.804Z,99.90
2019-06-10T23:53:18.479Z,99.90
2019-06-10T23:55:56.220Z,99.90
2019-06-10T23:58:55.567Z,99.90
